Terminal Aerodrome Forecast
Issued by NWS

Home | Current Version | Previous Version | Graphics & Text | Print | Product List | Glossary On
Versions: 1 2 3 4 5 6 7 8 9 10 11 12 13 14 15 16 17 18 19 20 21 22 23
000
FTUS43 KBIS 270700 AAA
TAFJMS
TAF AMD
KJMS 270733Z 2708/2806 32018KT P6SM SCT025 BKN040
     FM270900 32017G25KT P6SM BKN025
     FM271500 35017G25KT P6SM BKN040
     FM272100 35015G23KT P6SM SCT040
     FM280200 35009KT P6SM SCT040=

USA.gov is the U.S. government's official web portal to all federal, state and local government web resources and services.